Time;durP1;ratioP1;P1;durP2;ratioP2;P2;SDS_P1;SDS_P2;PMS_P1;PMS_P2;Temp;Humidity;BMP_temperature;BMP_pressure;BME280_temperature;BME280_humidity;BME280_pressure;Samples;Min_cycle;Max_cycle;Signal;HPM_P1;HPM_P2
2022/04/24 00:01:28;;;;;;;14.65;11.82;;;8.00;99.90;;;;;;5047159;28;20121;-81
2022/04/24 00:03:54;;;;;;;17.50;11.55;;;8.00;99.90;;;;;;5034388;28;20313;-81
2022/04/24 00:06:20;;;;;;;15.02;11.15;;;8.00;99.90;;;;;;5050159;28;20048;-81
2022/04/24 00:08:45;;;;;;;13.70;11.15;;;7.90;99.90;;;;;;5018458;28;20038;-78
2022/04/24 00:11:11;;;;;;;13.23;10.90;;;7.90;99.90;;;;;;5052271;28;20043;-77
2022/04/24 00:13:41;;;;;;;13.88;10.48;;;7.90;99.90;;;;;;5035932;28;20048;-77
2022/04/24 00:16:11;;;;;;;13.25;10.05;;;7.90;99.90;;;;;;5035984;28;20096;-77
2022/04/24 00:18:38;;;;;;;12.38;9.75;;;7.90;99.90;;;;;;5035041;28;20041;-77
2022/04/24 00:21:06;;;;;;;13.43;9.35;;;7.80;99.90;;;;;;5034328;28;20041;-77
2022/04/24 00:23:32;;;;;;;12.50;10.07;;;7.80;99.90;;;;;;5066410;28;20041;-77
2022/04/24 00:25:59;;;;;;;11.15;9.05;;;7.80;99.90;;;;;;5019562;28;20033;-82
2022/04/24 00:28:24;;;;;;;13.65;9.65;;;7.80;99.90;;;;;;5035358;28;20042;-82
2022/04/24 00:30:50;;;;;;;12.95;9.57;;;7.70;99.90;;;;;;5018980;28;20052;-82
2022/04/24 00:33:16;;;;;;;13.23;9.60;;;7.70;99.90;;;;;;5002470;28;20037;-82
2022/04/24 00:35:42;;;;;;;13.90;10.00;;;7.80;99.90;;;;;;5067541;28;20040;-82
2022/04/24 00:38:08;;;;;;;12.30;9.40;;;;;;;;;;5017532;28;20033;-82
2022/04/24 00:40:33;;;;;;;16.73;9.95;;;7.60;99.90;;;;;;5034814;28;20037;-82
2022/04/24 00:42:59;;;;;;;13.45;9.80;;;7.70;99.90;;;;;;5034875;28;21804;-78
2022/04/24 00:45:25;;;;;;;14.40;10.07;;;;;;;;;;5034432;28;20041;-78
2022/04/24 00:47:54;;;;;;;12.73;10.02;;;7.60;99.90;;;;;;5032365;28;20041;-77
2022/04/24 00:50:19;;;;;;;12.20;9.55;;;7.50;99.90;;;;;;5033634;28;20033;-78
2022/04/24 00:52:46;;;;;;;14.82;9.85;;;7.50;99.90;;;;;;5034141;28;20033;-77
2022/04/24 00:55:12;;;;;;;11.63;9.77;;;7.40;99.90;;;;;;5049641;28;20107;-78
2022/04/24 00:57:40;;;;;;;12.95;9.90;;;8.40;99.90;;;;;;5034256;28;20041;-77
2022/04/24 01:00:07;;;;;;;13.40;10.23;;;7.30;99.90;;;;;;5049988;28;20036;-81
2022/04/24 01:02:33;;;;;;;14.55;10.65;;;7.30;99.90;;;;;;5034673;28;20042;-81
2022/04/24 01:05:00;;;;;;;12.98;9.80;;;7.10;99.90;;;;;;5033595;28;20061;-81
2022/04/24 01:07:25;;;;;;;14.82;10.13;;;7.20;99.90;;;;;;5049532;28;20488;-81
2022/04/24 01:09:51;;;;;;;13.00;9.43;;;7.20;99.90;;;;;;5033258;28;20092;-81
2022/04/24 01:12:17;;;;;;;13.38;9.68;;;7.10;99.90;;;;;;5033696;28;20052;-81
2022/04/24 01:14:42;;;;;;;12.57;9.57;;;7.10;99.90;;;;;;5035451;28;20116;-81
2022/04/24 01:17:08;;;;;;;11.48;9.10;;;7.10;99.90;;;;;;5033415;28;20041;-78
2022/04/24 01:19:34;;;;;;;14.65;10.18;;;7.00;99.90;;;;;;4999724;28;20037;-78
2022/04/24 01:22:00;;;;;;;14.90;10.05;;;7.00;99.90;;;;;;5033525;28;20121;-78
2022/04/24 01:24:28;;;;;;;13.70;10.02;;;7.00;99.90;;;;;;5033626;28;20124;-78
2022/04/24 01:26:54;;;;;;;12.15;9.75;;;7.00;99.90;;;;;;5032072;28;20038;-78
2022/04/24 01:29:21;;;;;;;12.68;9.75;;;6.90;99.90;;;;;;5049388;28;20064;-78
2022/04/24 01:31:49;;;;;;;14.23;9.38;;;7.40;99.90;;;;;;5016377;28;20444;-77
2022/04/24 01:34:16;;;;;;;15.07;10.18;;;6.90;99.90;;;;;;5048788;28;20037;-77
2022/04/24 01:36:42;;;;;;;13.98;9.85;;;6.80;99.90;;;;;;5030037;28;20040;-77
2022/04/24 01:39:08;;;;;;;13.45;9.70;;;6.80;99.90;;;;;;5017445;28;20045;-77
2022/04/24 01:41:34;;;;;;;11.55;9.25;;;6.80;99.90;;;;;;5048701;28;20073;-77
2022/04/24 01:44:00;;;;;;;12.65;9.80;;;6.80;99.90;;;;;;5032146;28;20099;-77
2022/04/24 01:46:26;;;;;;;10.77;8.65;;;6.80;99.90;;;;;;5048384;28;20045;-77
2022/04/24 01:48:52;;;;;;;13.27;9.27;;;6.80;99.90;;;;;;5048839;28;20132;-77
2022/04/24 01:51:18;;;;;;;14.15;9.30;;;6.70;99.90;;;;;;5033036;28;20091;-77
2022/04/24 01:53:44;;;;;;;12.57;9.07;;;6.70;99.90;;;;;;5033136;28;20069;-77
2022/04/24 01:56:12;;;;;;;10.90;8.90;;;6.80;99.90;;;;;;5048676;28;20080;-77
2022/04/24 01:58:38;;;;;;;12.45;9.45;;;6.70;99.90;;;;;;5065606;28;20113;-77
2022/04/24 02:01:05;;;;;;;14.32;9.73;;;6.70;99.90;;;;;;5048713;28;20033;-77
2022/04/24 02:03:32;;;;;;;12.00;9.45;;;6.70;99.90;;;;;;5048385;28;20110;-78
2022/04/24 02:05:58;;;;;;;12.95;9.00;;;6.60;99.90;;;;;;5063466;28;20131;-82
2022/04/24 02:08:24;;;;;;;11.82;9.35;;;6.70;99.90;;;;;;5031551;28;20456;-82
2022/04/24 02:10:51;;;;;;;12.02;9.65;;;6.80;99.90;;;;;;5048471;28;20043;-82
2022/04/24 02:13:17;;;;;;;12.65;9.23;;;6.60;99.90;;;;;;5049008;28;20041;-82
2022/04/24 02:15:43;;;;;;;12.73;9.25;;;6.60;99.90;;;;;;5032202;28;20699;-82
2022/04/24 02:18:09;;;;;;;13.55;9.82;;;7.30;99.90;;;;;;5065056;28;20472;-82
2022/04/24 02:20:35;;;;;;;13.10;9.93;;;6.50;99.90;;;;;;5032532;28;20049;-82
2022/04/24 02:23:01;;;;;;;14.75;9.55;;;6.40;99.90;;;;;;5032868;28;20044;-77
2022/04/24 02:25:28;;;;;;;12.52;9.80;;;6.20;99.90;;;;;;5032234;28;20041;-77
2022/04/24 02:27:55;;;;;;;14.80;9.30;;;6.30;99.90;;;;;;5032421;28;20045;-77
2022/04/24 02:30:26;;;;;;;16.45;10.10;;;6.20;99.90;;;;;;5063760;28;20052;-77
2022/04/24 02:32:54;;;;;;;12.70;10.23;;;6.20;99.90;;;;;;5031603;28;20044;-77
2022/04/24 02:35:20;;;;;;;12.18;8.98;;;6.90;99.90;;;;;;5048306;28;20033;-77
2022/04/24 02:37:46;;;;;;;13.50;9.60;;;6.10;99.90;;;;;;5031518;28;20036;-77
2022/04/24 02:40:11;;;;;;;15.02;10.27;;;6.50;99.90;;;;;;5032288;28;20033;-77
2022/04/24 02:42:38;;;;;;;16.50;10.13;;;6.10;99.90;;;;;;5064623;28;20033;-78
2022/04/24 02:45:05;;;;;;;13.55;10.38;;;6.10;99.90;;;;;;5031959;28;20581;-78
2022/04/24 02:47:30;;;;;;;13.45;10.20;;;6.00;99.90;;;;;;5015536;28;20040;-78
2022/04/24 02:49:56;;;;;;;11.50;9.48;;;6.10;99.90;;;;;;5031952;28;20037;-78
2022/04/24 02:52:22;;;;;;;15.68;9.82;;;6.10;99.90;;;;;;5049395;28;20045;-78
2022/04/24 02:54:47;;;;;;;16.38;10.45;;;6.30;99.90;;;;;;5033013;28;20042;-78
2022/04/24 02:57:13;;;;;;;13.27;9.85;;;6.00;99.90;;;;;;5032865;28;20041;-80
2022/04/24 02:59:42;;;;;;;14.85;10.95;;;6.00;99.90;;;;;;5047275;28;20079;-80
2022/04/24 03:02:09;;;;;;;14.20;10.25;;;6.00;99.90;;;;;;5032050;28;20041;-80
2022/04/24 03:04:36;;;;;;;13.65;10.30;;;;;;;;;;5062867;28;20061;-80
2022/04/24 03:07:01;;;;;;;12.43;9.63;;;5.90;99.90;;;;;;5031857;28;20037;-80
2022/04/24 03:09:27;;;;;;;13.13;9.98;;;5.90;99.90;;;;;;5032150;28;20041;-81
2022/04/24 03:11:53;;;;;;;15.52;9.82;;;5.80;99.90;;;;;;5047139;28;20037;-78
2022/04/24 03:14:21;;;;;;;17.27;10.30;;;5.80;99.90;;;;;;5031653;28;20065;-78
2022/04/24 03:16:47;;;;;;;14.25;9.88;;;5.80;99.90;;;;;;5031855;28;20699;-78
2022/04/24 03:19:12;;;;;;;13.68;10.48;;;5.80;99.90;;;;;;5031903;28;20045;-78
2022/04/24 03:21:38;;;;;;;19.70;10.73;;;5.80;99.90;;;;;;5030488;28;20523;-78
2022/04/24 03:24:04;;;;;;;15.75;10.35;;;5.70;99.90;;;;;;5030791;28;20042;-78
2022/04/24 03:26:29;;;;;;;12.40;10.18;;;5.70;99.90;;;;;;5015076;28;20033;-78
2022/04/24 03:28:57;;;;;;;14.32;10.60;;;5.70;99.90;;;;;;5047505;28;20037;-82
2022/04/24 03:31:23;;;;;;;13.75;10.30;;;5.70;99.90;;;;;;5033086;28;20041;-82
2022/04/24 03:33:50;;;;;;;14.73;9.90;;;5.70;99.90;;;;;;5047411;28;20502;-82
2022/04/24 03:36:16;;;;;;;12.68;9.80;;;5.70;99.90;;;;;;5039959;28;20371;-82
2022/04/24 03:38:42;;;;;;;11.93;9.70;;;5.70;99.90;;;;;;5064790;28;20041;-82
2022/04/24 03:41:08;;;;;;;14.30;10.23;;;5.80;99.90;;;;;;5038940;28;20060;-82
2022/04/24 03:43:34;;;;;;;13.27;10.48;;;5.70;99.90;;;;;;5003078;28;20029;-82
2022/04/24 03:45:59;;;;;;;14.00;10.20;;;5.80;99.90;;;;;;5047002;28;20103;-78
2022/04/24 03:48:25;;;;;;;13.60;11.07;;;5.80;99.90;;;;;;5032005;28;20404;-78
2022/04/24 03:50:51;;;;;;;14.27;10.65;;;5.80;99.90;;;;;;5046832;28;20387;-78
2022/04/24 03:53:18;;;;;;;16.48;10.35;;;6.50;99.90;;;;;;5014725;28;20069;-78
2022/04/24 03:55:45;;;;;;;15.85;10.95;;;5.70;99.90;;;;;;5031137;28;20040;-78
2022/04/24 03:58:11;;;;;;;13.57;10.35;;;5.80;99.90;;;;;;5046971;28;20033;-78
2022/04/24 04:00:37;;;;;;;12.80;9.95;;;5.80;99.90;;;;;;5031240;28;20527;-78
2022/04/24 04:03:03;;;;;;;12.13;9.63;;;5.80;99.90;;;;;;5029912;28;20180;-81
2022/04/24 04:05:29;;;;;;;15.88;10.18;;;5.80;99.90;;;;;;5046749;28;20102;-82
2022/04/24 04:07:55;;;;;;;18.27;10.30;;;5.80;99.90;;;;;;5031053;28;20044;-82
2022/04/24 04:10:22;;;;;;;14.82;9.85;;;5.80;99.90;;;;;;5014736;28;20038;-81
2022/04/24 04:12:50;;;;;;;13.57;9.80;;;5.90;99.90;;;;;;5031548;28;20417;-82
2022/04/24 04:15:15;;;;;;;15.98;9.98;;;5.90;99.90;;;;;;5063705;28;20041;-82
2022/04/24 04:17:41;;;;;;;13.38;9.10;;;5.90;99.90;;;;;;5047028;28;20034;-82
2022/04/24 04:20:11;;;;;;;12.25;9.88;;;5.90;99.90;;;;;;5013600;28;20041;-81
2022/04/24 04:22:53;;;;;;;16.13;9.73;;;5.90;99.90;;;;;;5015057;28;20043;-81
2022/04/24 04:25:21;;;;;;;13.43;9.40;;;5.90;99.90;;;;;;5045876;28;20411;-81
2022/04/24 04:27:47;;;;;;;15.10;10.30;;;5.90;99.90;;;;;;5013309;28;20087;-80
2022/04/24 04:30:13;;;;;;;13.35;9.82;;;6.10;99.90;;;;;;5029427;28;20120;-80
2022/04/24 04:32:39;;;;;;;14.80;9.05;;;6.00;99.90;;;;;;5028826;28;20041;-81
2022/04/24 04:35:05;;;;;;;12.30;9.32;;;6.00;99.90;;;;;;5030777;28;20034;-82
2022/04/24 04:37:32;;;;;;;15.77;9.68;;;6.00;99.90;;;;;;5031216;28;20463;-82
2022/04/24 04:39:58;;;;;;;14.40;9.63;;;6.10;99.90;;;;;;5046486;28;20045;-82
2022/04/24 04:42:24;;;;;;;13.23;9.32;;;6.10;99.90;;;;;;5045324;28;20499;-82
2022/04/24 04:44:50;;;;;;;14.82;9.40;;;6.10;99.90;;;;;;5046037;28;20267;-82
2022/04/24 04:47:15;;;;;;;13.00;8.90;;;6.20;99.90;;;;;;5046846;28;20037;-81
2022/04/24 04:49:41;;;;;;;13.15;9.25;;;6.30;99.90;;;;;;5020418;28;20045;-82
2022/04/24 04:52:07;;;;;;;15.85;9.65;;;6.20;99.90;;;;;;5050177;28;20359;-82
2022/04/24 04:54:34;;;;;;;15.35;8.80;;;6.20;99.90;;;;;;5051137;28;20467;-82
2022/04/24 04:57:00;;;;;;;12.48;9.20;;;6.20;99.90;;;;;;5018295;28;20044;-82
2022/04/24 04:59:25;;;;;;;13.38;9.38;;;6.30;99.90;;;;;;5050136;28;20060;-82
2022/04/24 05:01:51;;;;;;;16.17;9.18;;;6.30;99.90;;;;;;5027318;28;20045;-81
2022/04/24 05:04:17;;;;;;;11.10;8.60;;;6.60;99.90;;;;;;5033853;28;20057;-82
2022/04/24 05:06:42;;;;;;;13.70;8.60;;;6.40;99.90;;;;;;5050576;28;20064;-82
2022/04/24 05:09:08;;;;;;;12.73;8.48;;;7.00;99.90;;;;;;5018345;28;20045;-77
2022/04/24 05:11:39;;;;;;;14.35;9.85;;;6.60;99.90;;;;;;5048332;28;20529;-77
2022/04/24 05:14:06;;;;;;;11.63;8.45;;;6.60;99.90;;;;;;5031851;28;20044;-77
2022/04/24 05:16:32;;;;;;;12.90;9.13;;;6.70;99.90;;;;;;5031669;28;20472;-77
2022/04/24 05:18:58;;;;;;;12.57;8.60;;;7.60;99.90;;;;;;5034006;28;20038;-77
2022/04/24 05:21:25;;;;;;;13.30;8.88;;;6.90;99.90;;;;;;5033060;28;20033;-77
2022/04/24 05:23:52;;;;;;;12.20;8.43;;;7.00;99.90;;;;;;5064473;28;20045;-77
2022/04/24 05:26:18;;;;;;;11.52;8.68;;;7.10;99.90;;;;;;5030600;28;20049;-82
2022/04/24 05:28:45;;;;;;;13.07;9.15;;;7.20;99.90;;;;;;5066591;28;20033;-82
2022/04/24 05:31:11;;;;;;;10.63;8.65;;;7.30;99.90;;;;;;5040835;28;20050;-82
2022/04/24 05:33:37;;;;;;;12.27;9.13;;;7.60;99.90;;;;;;5033752;28;20037;-82
2022/04/24 05:36:05;;;;;;;11.88;8.57;;;7.50;99.90;;;;;;5033892;28;20037;-82
2022/04/24 05:38:31;;;;;;;12.00;8.45;;;7.70;99.90;;;;;;5033539;28;20044;-82
2022/04/24 05:40:57;;;;;;;14.10;8.48;;;7.70;99.90;;;;;;5033970;28;20033;-82
2022/04/24 05:43:23;;;;;;;12.18;8.68;;;7.70;99.90;;;;;;5049004;28;20120;-82
2022/04/24 05:45:48;;;;;;;11.55;8.52;;;8.00;99.90;;;;;;5048388;28;20033;-82
2022/04/24 05:48:15;;;;;;;11.85;8.85;;;8.10;99.90;;;;;;5048367;28;20033;-82
2022/04/24 05:50:41;;;;;;;12.82;9.18;;;8.20;99.90;;;;;;5049045;28;20459;-82
2022/04/24 05:53:07;;;;;;;12.45;8.48;;;8.30;99.90;;;;;;5016809;28;20057;-82
2022/04/24 05:55:32;;;;;;;12.13;8.38;;;8.40;99.90;;;;;;5031307;28;20117;-82
2022/04/24 05:57:58;;;;;;;12.75;9.10;;;8.50;99.90;;;;;;5015993;28;20030;-82
2022/04/24 06:00:24;;;;;;;11.90;8.98;;;8.60;99.90;;;;;;5031804;28;20049;-81
2022/04/24 06:02:50;;;;;;;13.82;9.15;;;8.70;99.90;;;;;;5027492;28;20038;-81
2022/04/24 06:05:16;;;;;;;14.57;9.00;;;9.00;99.90;;;;;;5032617;28;20389;-81
2022/04/24 06:07:42;;;;;;;16.02;9.50;;;8.90;99.90;;;;;;5048246;28;20048;-81
2022/04/24 06:10:09;;;;;;;11.63;9.05;;;9.20;99.90;;;;;;5048692;28;20037;-81
2022/04/24 06:12:49;;;;;;;17.55;8.98;;;9.90;99.90;;;;;;5032526;28;20080;-81
2022/04/24 06:15:17;;;;;;;12.63;8.77;;;10.40;99.90;;;;;;5033812;28;20383;-83
2022/04/24 06:17:47;;;;;;;11.48;8.07;;;10.80;99.90;;;;;;5034800;22;20034;-81
2022/04/24 06:20:13;;;;;;;10.85;8.40;;;11.30;99.90;;;;;;5044775;28;20131;-81
2022/04/24 06:22:47;;;;;;;11.25;7.68;;;11.70;99.90;;;;;;5069921;28;20040;-82
2022/04/24 06:25:17;;;;;;;10.32;7.78;;;12.00;99.90;;;;;;5068464;28;20036;-81
2022/04/24 06:27:46;;;;;;;12.05;7.97;;;12.30;99.90;;;;;;5068484;28;20033;-82
2022/04/24 06:30:14;;;;;;;10.52;6.85;;;12.90;99.90;;;;;;5067251;28;20036;-82
2022/04/24 06:32:41;;;;;;;10.57;7.38;;;13.30;99.90;;;;;;5053728;28;20040;-78
2022/04/24 06:35:11;;;;;;;8.85;6.80;;;13.60;99.90;;;;;;5070137;28;20123;-78
2022/04/24 06:37:43;;;;;;;10.68;6.72;;;14.10;99.90;;;;;;5067387;28;20386;-78
2022/04/24 06:40:10;;;;;;;10.63;6.82;;;14.40;99.90;;;;;;5036556;28;20036;-79
2022/04/24 06:42:57;;;;;;;9.68;6.43;;;15.00;99.90;;;;;;5060930;28;20403;-78
2022/04/24 06:45:27;;;;;;;8.85;6.35;;;15.10;99.90;;;;;;5050708;28;20048;-78
2022/04/24 06:47:58;;;;;;;8.65;6.22;;;15.50;99.40;;;;;;5054836;28;20490;-79
2022/04/24 06:50:25;;;;;;;10.80;6.65;;;15.90;99.50;;;;;;5050580;28;20044;-79
2022/04/24 06:53:12;;;;;;;8.13;6.07;;;16.10;99.00;;;;;;5070629;28;20040;-79
2022/04/24 06:55:42;;;;;;;7.95;5.90;;;16.50;99.60;;;;;;5067638;28;20487;-78
2022/04/24 06:58:10;;;;;;;8.63;6.28;;;16.80;98.90;;;;;;5051238;28;20376;-78
2022/04/24 07:00:38;;;;;;;7.65;5.47;;;16.80;97.30;;;;;;5061696;28;20037;-78
2022/04/24 07:03:18;;;;;;;7.20;4.88;;;16.70;97.10;;;;;;5055312;28;20485;-79
2022/04/24 07:05:44;;;;;;;7.25;4.55;;;16.60;95.40;;;;;;5053156;28;20402;-79
2022/04/24 07:08:10;;;;;;;7.03;5.00;;;16.80;96.10;;;;;;5069926;28;20086;-79
2022/04/24 07:10:37;;;;;;;7.35;4.80;;;17.20;96.40;;;;;;5068427;28;20074;-79
2022/04/24 07:13:03;;;;;;;8.70;4.60;;;17.70;93.40;;;;;;5048614;28;20036;-79
2022/04/24 07:15:35;;;;;;;7.78;4.75;;;18.00;94.80;;;;;;5059941;28;20044;-79
2022/04/24 07:18:01;;;;;;;6.72;4.45;;;18.10;93.90;;;;;;5039966;28;20522;-80
2022/04/24 07:20:29;;;;;;;6.10;4.22;;;18.00;92.60;;;;;;5044735;28;20055;-79
2022/04/24 07:23:01;;;;;;;7.40;3.55;;;18.00;92.60;;;;;;5061269;28;20028;-83
2022/04/24 07:25:31;;;;;;;9.90;3.85;;;18.00;91.80;;;;;;5046902;28;20052;-83
2022/04/24 07:27:57;;;;;;;8.70;3.83;;;18.10;91.60;;;;;;5068280;28;20486;-83
2022/04/24 07:30:23;;;;;;;5.97;3.33;;;18.90;90.80;;;;;;5038056;28;20066;-83
2022/04/24 07:32:54;;;;;;;7.28;3.50;;;19.10;92.00;;;;;;5060818;28;20041;-84
2022/04/24 07:35:23;;;;;;;4.95;3.30;;;19.60;90.90;;;;;;5059694;28;20033;-82
2022/04/24 07:37:49;;;;;;;6.10;3.15;;;19.70;87.70;;;;;;5059786;28;20402;-83
2022/04/24 07:40:17;;;;;;;5.00;2.78;;;20.00;88.10;;;;;;5042183;28;20127;-80
2022/04/24 07:42:48;;;;;;;5.25;3.00;;;20.20;87.60;;;;;;5045350;28;20055;-79
2022/04/24 07:45:38;;;;;;;4.88;2.58;;;20.10;83.10;;;;;;5052353;28;20050;-80
2022/04/24 07:48:06;;;;;;;4.90;3.03;;;20.30;81.50;;;;;;5062076;28;20052;-79
2022/04/24 07:50:40;;;;;;;4.38;2.70;;;20.50;81.30;;;;;;5058646;28;20097;-79
2022/04/24 07:53:06;;;;;;;12.07;3.03;;;20.90;79.20;;;;;;5048339;28;20040;-80
2022/04/24 07:55:32;;;;;;;4.10;2.53;;;21.10;79.20;;;;;;5060589;28;20049;-83
2022/04/24 07:57:59;;;;;;;4.50;2.50;;;21.40;79.50;;;;;;5066005;28;20043;-83
2022/04/24 08:00:28;;;;;;;5.05;2.60;;;21.60;78.50;;;;;;5061115;28;20086;-83
2022/04/24 08:03:01;;;;;;;3.88;2.40;;;21.90;76.80;;;;;;5063657;28;20053;-83
2022/04/24 08:05:30;;;;;;;4.82;2.40;;;22.10;74.80;;;;;;5060310;28;20044;-84
2022/04/24 08:07:58;;;;;;;3.72;2.22;;;22.40;75.60;;;;;;5046399;28;20115;-83
2022/04/24 08:10:25;;;;;;;4.95;2.33;;;;;;;;;;5062917;28;20063;-84
2022/04/24 08:12:52;;;;;;;7.65;2.50;;;22.80;71.40;;;;;;5060113;28;20043;-80
2022/04/24 08:15:18;;;;;;;4.85;2.40;;;;;;;;;;5058702;28;20080;-80
2022/04/24 08:17:44;;;;;;;4.53;2.30;;;;;;;;;;5058705;28;20040;-80
2022/04/24 08:20:11;;;;;;;5.93;2.58;;;;;;;;;;5062217;28;20398;-80
2022/04/24 08:22:48;;;;;;;4.78;2.40;;;24.30;69.20;;;;;;5066619;28;20033;-80
2022/04/24 08:25:17;;;;;;;6.13;2.58;;;24.80;67.10;;;;;;5048351;28;20041;-80
2022/04/24 08:27:43;;;;;;;5.57;2.40;;;24.90;66.50;;;;;;5066935;28;20048;-80
2022/04/24 08:30:10;;;;;;;5.63;2.63;;;24.90;66.60;;;;;;5066641;28;20044;-83
2022/04/24 08:32:37;;;;;;;5.22;2.72;;;25.00;66.40;;;;;;5064461;28;20051;-84
2022/04/24 08:35:04;;;;;;;6.03;2.60;;;24.90;65.90;;;;;;5051514;28;20040;-83
2022/04/24 08:37:29;;;;;;;5.00;2.88;;;25.00;63.80;;;;;;5068792;28;20213;-84
2022/04/24 08:39:55;;;;;;;4.72;2.60;;;25.00;72.10;;;;;;5053230;28;20505;-83
2022/04/24 08:42:21;;;;;;;9.48;2.95;;;25.20;65.30;;;;;;5049639;28;20068;-84
2022/04/24 08:44:49;;;;;;;5.78;2.58;;;25.30;63.10;;;;;;5051674;28;20059;-85
2022/04/24 08:47:16;;;;;;;6.90;2.50;;;25.50;63.40;;;;;;5066095;28;20148;-84
2022/04/24 08:49:43;;;;;;;4.65;2.70;;;25.60;62.50;;;;;;5051537;28;20051;-83
2022/04/24 08:52:14;;;;;;;5.13;3.03;;;25.70;62.40;;;;;;5048592;28;20060;-84
2022/04/24 08:54:41;;;;;;;6.35;3.13;;;25.80;61.50;;;;;;5066494;28;20044;-84
2022/04/24 08:57:08;;;;;;;7.18;2.83;;;25.60;61.50;;;;;;5063775;28;20036;-83
2022/04/24 08:59:38;;;;;;;7.10;2.83;;;25.10;62.10;;;;;;5064641;28;20067;-86
2022/04/24 09:02:05;;;;;;;5.15;2.70;;;25.80;59.80;;;;;;5064516;28;20091;-80
2022/04/24 09:04:35;;;;;;;4.40;2.60;;;25.90;60.40;;;;;;5066650;28;20037;-80
2022/04/24 09:07:03;;;;;;;5.72;2.55;;;26.50;58.10;;;;;;5066736;28;20862;-80
2022/04/24 09:09:37;;;;;;;10.40;3.13;;;26.60;58.90;;;;;;5062174;28;20037;-80
2022/04/24 09:12:33;;;;;;;4.85;2.47;;;26.60;58.60;;;;;;5065054;28;20356;-80
2022/04/24 09:15:00;;;;;;;7.10;2.88;;;26.40;56.90;;;;;;5069722;28;20059;-80
2022/04/24 09:17:32;;;;;;;4.95;2.70;;;26.10;57.00;;;;;;5072273;28;20044;-80
2022/04/24 09:19:59;;;;;;;5.22;2.70;;;26.10;56.40;;;;;;5067419;28;20486;-79
2022/04/24 09:22:25;;;;;;;10.00;3.00;;;25.70;56.60;;;;;;5063799;28;20654;-79
2022/04/24 09:24:54;;;;;;;9.35;3.20;;;26.10;57.20;;;;;;5062430;28;20041;-80
2022/04/24 09:27:30;;;;;;;9.00;2.90;;;26.20;56.70;;;;;;5064081;28;20040;-79
2022/04/24 09:29:57;;;;;;;;;;;26.70;56.80;;;;;;5062211;28;20744;-79
2022/04/24 09:32:24;;;;;;;6.82;3.00;;;26.70;56.30;;;;;;5061352;28;19995;-79
2022/04/24 09:34:51;;;;;;;7.03;2.80;;;;;;;;;;5043541;28;20120;-80
2022/04/24 09:37:17;;;;;;;14.05;3.03;;;27.50;57.90;;;;;;5061129;28;20044;-82
2022/04/24 09:39:43;;;;;;;6.50;2.95;;;28.30;55.30;;;;;;5057085;28;20039;-82
2022/04/24 09:42:14;;;;;;;5.28;2.92;;;28.30;55.70;;;;;;5061535;28;20032;-82
2022/04/24 09:44:51;;;;;;;4.80;3.00;;;28.50;54.10;;;;;;5047911;28;20051;-84
2022/04/24 09:47:27;;;;;;;4.72;3.00;;;28.50;53.60;;;;;;5035178;28;20459;-83
2022/04/24 09:49:53;;;;;;;5.55;2.70;;;28.40;55.20;;;;;;5067246;28;20509;-83
2022/04/24 09:52:24;;;;;;;6.55;2.90;;;28.50;54.40;;;;;;5066575;28;20139;-83
2022/04/24 09:54:54;;;;;;;5.32;2.72;;;28.50;54.10;;;;;;5063646;28;20476;-83
2022/04/24 09:57:23;;;;;;;4.95;2.90;;;28.40;52.90;;;;;;5055723;28;20040;-84
2022/04/24 09:59:50;;;;;;;5.43;2.65;;;28.00;52.80;;;;;;5067041;28;20493;-83
2022/04/24 10:02:18;;;;;;;5.50;2.95;;;28.10;52.10;;;;;;5052198;28;20111;-83
2022/04/24 10:04:46;;;;;;;6.70;3.05;;;28.10;52.40;;;;;;5064530;28;20052;-84
2022/04/24 10:07:17;;;;;;;5.05;2.60;;;28.10;52.10;;;;;;5062315;28;20044;-84
2022/04/24 10:09:46;;;;;;;5.50;2.72;;;28.30;52.50;;;;;;5063570;28;20072;-83
2022/04/24 10:12:20;;;;;;;4.82;2.85;;;28.40;52.40;;;;;;5068475;28;20070;-83
2022/04/24 10:14:55;;;;;;;4.40;2.50;;;28.20;51.60;;;;;;5063994;28;20505;-83
2022/04/24 10:17:59;;;;;;;12.10;2.78;;;28.00;50.80;;;;;;5064343;28;20036;-82
2022/04/24 10:20:50;;;;;;;4.72;2.80;;;27.40;51.80;;;;;;5064337;28;20044;-83
2022/04/24 10:23:32;;;;;;;4.60;2.60;;;27.70;51.80;;;;;;5044286;28;20052;-82
2022/04/24 10:25:58;;;;;;;6.57;2.50;;;28.00;51.10;;;;;;5064437;28;20052;-84
2022/04/24 10:28:38;;;;;;;4.28;2.42;;;28.00;52.00;;;;;;5046955;28;20033;-83
2022/04/24 10:31:11;;;;;;;6.05;2.40;;;28.80;52.00;;;;;;5065014;28;20028;-83
2022/04/24 10:33:39;;;;;;;4.07;2.50;;;28.80;52.60;;;;;;5066196;28;20051;-83
2022/04/24 10:36:05;;;;;;;9.57;3.00;;;29.00;52.60;;;;;;5068738;28;20044;-83
2022/04/24 10:38:33;;;;;;;6.18;2.90;;;29.10;52.60;;;;;;5071787;28;20386;-83
2022/04/24 10:40:59;;;;;;;4.82;2.80;;;29.30;50.70;;;;;;5050707;28;20040;-83
2022/04/24 10:43:25;;;;;;;8.48;3.17;;;29.10;52.10;;;;;;5056185;28;20461;-82
2022/04/24 10:45:52;;;;;;;5.13;3.03;;;28.90;51.60;;;;;;5033441;28;20036;-83
2022/04/24 10:48:18;;;;;;;6.88;2.80;;;28.60;52.40;;;;;;5050652;28;20036;-82
2022/04/24 10:50:54;;;;;;;4.75;2.88;;;28.40;51.70;;;;;;5068939;28;20041;-82
2022/04/24 10:53:20;;;;;;;7.75;3.10;;;28.00;51.20;;;;;;5053264;28;21261;-83
2022/04/24 10:55:46;;;;;;;5.07;2.80;;;27.20;53.00;;;;;;5068594;28;20047;-82
2022/04/24 10:58:13;;;;;;;5.55;3.10;;;27.50;53.00;;;;;;5065951;28;20052;-82
2022/04/24 11:00:39;;;;;;;6.47;3.17;;;27.70;52.70;;;;;;5043885;28;20050;-79
2022/04/24 11:03:15;;;;;;;5.18;3.10;;;27.10;53.40;;;;;;5050676;28;20499;-79
2022/04/24 11:05:47;;;;;;;9.13;3.25;;;26.50;53.90;;;;;;5067706;28;20044;-79
2022/04/24 11:08:18;;;;;;;11.77;3.53;;;26.50;55.20;;;;;;5033785;28;20059;-79
2022/04/24 11:10:46;;;;;;;14.80;3.60;;;26.70;54.60;;;;;;5069503;28;20485;-79
2022/04/24 11:13:17;;;;;;;6.10;3.40;;;26.40;53.90;;;;;;5070577;28;20040;-80
2022/04/24 11:15:47;;;;;;;6.32;3.05;;;26.40;54.10;;;;;;5059579;28;20559;-79
2022/04/24 11:18:22;;;;;;;6.15;3.65;;;26.10;54.20;;;;;;5053134;28;20064;-79
2022/04/24 11:21:03;;;;;;;9.45;3.60;;;25.80;54.00;;;;;;5060488;28;20479;-79
2022/04/24 11:23:37;;;;;;;7.55;3.72;;;25.70;56.00;;;;;;5060935;28;20040;-79
2022/04/24 11:26:08;;;;;;;6.70;3.55;;;26.00;55.50;;;;;;5045491;28;20103;-79
2022/04/24 11:28:38;;;;;;;7.43;3.83;;;26.70;55.60;;;;;;5063556;28;20039;-79
2022/04/24 11:31:23;;;;;;;6.60;3.78;;;27.30;54.70;;;;;;5060803;28;20032;-79
2022/04/24 11:33:58;;;;;;;8.15;3.53;;;27.50;56.10;;;;;;5036993;28;20418;-80
2022/04/24 11:36:30;;;;;;;13.93;4.28;;;27.60;54.90;;;;;;5047110;28;20091;-80
2022/04/24 11:38:57;;;;;;;6.78;3.60;;;27.70;54.10;;;;;;5045653;28;20115;-80
2022/04/24 11:41:26;;;;;;;21.25;4.55;;;27.80;54.20;;;;;;5029137;28;20049;-80
2022/04/24 11:44:03;;;;;;;5.43;3.45;;;27.90;53.90;;;;;;5056567;28;20482;-79
2022/04/24 11:52:02;;;;;;;7.43;3.78;;;27.60;53.90;;;;;;5071344;28;20467;-82
2022/04/24 11:54:28;;;;;;;6.35;3.80;;;27.30;54.30;;;;;;5058355;28;20071;-82
2022/04/24 11:56:54;;;;;;;10.93;4.13;;;27.10;54.10;;;;;;5066586;28;20059;-82
2022/04/24 11:59:22;;;;;;;9.18;4.47;;;27.00;54.20;;;;;;5071908;28;20064;-82
2022/04/24 12:02:00;;;;;;;7.22;4.20;;;26.70;54.80;;;;;;5073909;28;20045;-82
2022/04/24 12:04:33;;;;;;;5.40;3.70;;;26.70;55.10;;;;;;5052614;28;20080;-82
2022/04/24 12:07:03;;;;;;;10.65;4.60;;;26.70;55.90;;;;;;5068701;28;20044;-80
2022/04/24 12:09:29;;;;;;;12.30;4.50;;;26.60;55.10;;;;;;5073126;28;20046;-80
2022/04/24 12:12:12;;;;;;;7.78;4.00;;;26.60;55.00;;;;;;5072393;28;20036;-80
2022/04/24 12:14:39;;;;;;;7.47;3.95;;;26.70;55.30;;;;;;5073289;28;20033;-79
2022/04/24 12:17:10;;;;;;;7.60;3.83;;;26.80;54.70;;;;;;5073305;28;20493;-80
2022/04/24 12:19:39;;;;;;;7.03;4.18;;;26.80;55.00;;;;;;5070979;28;20532;-80
2022/04/24 12:22:07;;;;;;;9.70;4.22;;;26.80;55.10;;;;;;5057407;28;20090;-82
2022/04/24 12:24:45;;;;;;;7.68;4.10;;;26.60;55.30;;;;;;5072379;28;20040;-83
2022/04/24 12:27:16;;;;;;;10.32;4.20;;;26.10;55.30;;;;;;5067274;28;20864;-83
2022/04/24 12:29:44;;;;;;;6.95;4.10;;;25.30;56.70;;;;;;5055676;28;20036;-83
2022/04/24 12:32:13;;;;;;;7.90;3.88;;;24.30;57.50;;;;;;5065737;28;20037;-83
2022/04/24 12:34:44;;;;;;;13.65;4.57;;;23.60;59.40;;;;;;5045512;28;20099;-83
2022/04/24 12:37:11;;;;;;;13.63;4.28;;;23.20;60.10;;;;;;5071117;28;20032;-83
2022/04/24 12:39:37;;;;;;;7.22;4.07;;;23.20;60.60;;;;;;5075533;28;20032;-82
2022/04/24 12:42:19;;;;;;;8.82;4.30;;;23.00;60.60;;;;;;5051408;28;20033;-82
2022/04/24 12:44:46;;;;;;;7.32;4.05;;;22.60;60.70;;;;;;5064036;28;20431;-82
2022/04/24 12:47:12;;;;;;;7.25;4.68;;;22.30;61.70;;;;;;5071738;28;20044;-83
2022/04/24 12:49:41;;;;;;;7.60;4.10;;;22.00;62.10;;;;;;5072752;28;20045;-82
2022/04/24 12:52:08;;;;;;;7.15;4.35;;;21.90;62.40;;;;;;5073477;28;20114;-82
2022/04/24 12:54:34;;;;;;;7.05;4.15;;;21.60;63.00;;;;;;5059814;28;20406;-82
2022/04/24 12:57:07;;;;;;;8.95;3.78;;;21.30;64.40;;;;;;5038312;28;20049;-83
2022/04/24 12:59:34;;;;;;;8.90;4.47;;;21.10;64.30;;;;;;5048256;28;20077;-82